Time;durP1;ratioP1;P1;durP2;ratioP2;P2;SDS_P1;SDS_P2;PMS_P1;PMS_P2;Temp;Humidity;BMP_temperature;BMP_pressure;BME280_temperature;BME280_humidity;BME280_pressure;Samples;Min_cycle;Max_cycle;Signal;HPM_P1;HPM_P2
2022/06/04 00:00:50;;;;;;;;;26.75;24.75;;;;;20.91;64.01;101063.81;4953356;28;45220;-69
2022/06/04 00:03:17;;;;;;;;;21.75;20.75;;;;;20.80;64.16;101055.53;4957985;28;45529;-69
2022/06/04 00:05:45;;;;;;;;;19.25;19.25;;;;;20.85;64.02;101066.09;4952028;28;45468;-69
2022/06/04 00:08:13;;;;;;;;;27.75;22.75;;;;;20.85;64.34;101063.38;4953772;28;45419;-69
2022/06/04 00:16:15;;;;;;;;;21.75;20.25;;;;;20.80;64.43;101066.41;4957204;28;45265;-69
2022/06/04 00:18:41;;;;;;;;;18.50;18.25;;;;;20.79;64.09;101061.94;4958114;28;45477;-69
2022/06/04 00:21:09;;;;;;;;;22.50;20.75;;;;;20.76;64.19;101061.28;4957011;28;45443;-69
2022/06/04 00:23:34;;;;;;;;;23.75;21.25;;;;;20.75;64.36;101060.44;4949094;28;45668;-69
2022/06/04 00:26:02;;;;;;;;;19.25;19.25;;;;;20.70;64.48;101049.03;4954171;28;46615;-69
2022/06/04 00:28:28;;;;;;;;;23.25;21.50;;;;;20.69;64.21;101056.28;4954806;28;45484;-69
2022/06/04 00:30:56;;;;;;;;;22.00;21.25;;;;;20.63;64.22;101061.28;4956318;28;45304;-69
2022/06/04 00:33:21;;;;;;;;;22.50;21.00;;;;;20.64;64.62;101063.88;4954911;28;45313;-69
2022/06/04 00:35:50;;;;;;;;;24.00;22.25;;;;;20.65;64.53;101062.06;4949522;28;46145;-69
2022/06/04 00:38:18;;;;;;;;;25.00;24.00;;;;;20.67;64.35;101060.09;4928629;28;45535;-69
2022/06/04 00:40:43;;;;;;;;;23.25;21.75;;;;;20.71;64.28;101062.50;4954308;28;45416;-69
2022/06/04 00:43:09;;;;;;;;;17.33;17.33;;;;;20.72;64.33;101052.50;4957867;28;45458;-69
2022/06/04 00:45:34;;;;;;;;;19.75;18.50;;;;;20.78;64.29;101060.22;4955612;28;47143;-72
2022/06/04 00:48:04;;;;;;;;;23.25;20.25;;;;;20.80;64.42;101044.69;4952735;28;45348;-71
2022/06/04 00:50:31;;;;;;;;;24.25;22.50;;;;;20.83;64.20;101049.91;4955635;28;45416;-68
2022/06/04 00:53:00;;;;;;;;;20.25;19.50;;;;;20.82;64.33;101044.59;4957600;28;45241;-67
2022/06/04 00:55:45;;;;;;;;;28.25;24.50;;;;;20.81;63.92;101048.25;4957000;28;45327;-67
2022/06/04 00:58:18;;;;;;;;;18.50;18.50;;;;;20.77;64.11;101038.63;4956702;28;45607;-68
2022/06/04 01:01:24;;;;;;;;;26.00;25.75;;;;;20.75;64.20;101037.84;4950997;28;45545;-68
2022/06/04 01:04:01;;;;;;;;;16.75;16.50;;;;;20.69;63.94;101029.16;4886190;29;46090;-67
2022/06/04 01:07:01;;;;;;;;;22.00;20.50;;;;;20.61;64.10;101028.78;4896029;29;45451;-68
2022/06/04 01:09:53;;;;;;;;;32.75;31.00;;;;;20.58;64.19;101022.72;4939208;28;45370;-67
2022/06/04 01:12:36;;;;;;;;;25.50;23.75;;;;;20.48;64.66;101026.09;4945074;28;45353;-66
2022/06/04 01:15:09;;;;;;;;;23.25;21.00;;;;;20.42;64.81;101014.81;4957181;28;45221;-69
2022/06/04 01:18:02;;;;;;;;;19.75;17.50;;;;;20.43;64.63;101019.25;4940872;28;46618;-68
2022/06/04 01:21:05;;;;;;;;;21.00;21.00;;;;;20.51;64.59;101034.03;4946152;28;45610;-68
2022/06/04 01:23:43;;;;;;;;;24.25;21.25;;;;;20.54;64.55;101019.38;4974187;28;45504;-72
2022/06/04 01:26:40;;;;;;;;;20.00;20.00;;;;;20.52;64.16;101008.63;4938263;28;45559;-71
2022/06/04 01:29:11;;;;;;;;;25.00;25.00;;;;;20.49;64.36;101006.13;4933339;28;46344;-71
2022/06/04 01:32:00;;;;;;;;;20.00;19.25;;;;;20.53;64.00;100993.22;4925570;28;45371;-71
2022/06/04 01:34:35;;;;;;;;;23.25;20.75;;;;;20.46;64.47;100991.91;4936683;28;45336;-71
2022/06/04 01:37:09;;;;;;;;;21.00;18.75;;;;;20.47;64.79;101001.78;4938273;28;45427;-71
2022/06/04 01:42:26;;;;;;;;;26.50;25.25;;;;;20.41;64.25;100994.94;4956987;28;45546;-71
2022/06/04 01:44:57;;;;;;;;;24.25;24.25;;;;;20.35;64.56;100995.38;4944910;28;45716;-71
2022/06/04 01:47:23;;;;;;;;;24.00;24.00;;;;;20.34;64.98;100997.22;4941063;28;45474;-71
2022/06/04 01:49:52;;;;;;;;;24.25;22.25;;;;;20.29;64.75;100996.66;4938452;28;45467;-71
2022/06/04 01:52:32;;;;;;;;;24.25;23.50;;;;;20.24;64.72;100987.13;4940293;28;45690;-71
2022/06/04 01:55:04;;;;;;;;;24.75;24.75;;;;;20.22;65.14;100989.09;4942107;28;45438;-71
2022/06/04 01:57:38;;;;;;;;;24.75;24.50;;;;;20.18;64.91;100989.28;4930125;28;45392;-71
2022/06/04 02:00:11;;;;;;;;;29.00;26.00;;;;;20.14;65.11;100982.31;4942002;28;45421;-71
2022/06/04 02:02:42;;;;;;;;;25.50;23.50;;;;;20.09;65.50;100972.78;4941353;28;45400;-71
2022/06/04 02:05:15;;;;;;;;;28.00;26.75;;;;;19.99;65.40;100965.28;4941814;28;45445;-71
2022/06/04 02:07:43;;;;;;;;;22.25;22.25;;;;;19.94;65.68;100986.41;4941635;28;45325;-71
2022/06/04 02:10:32;;;;;;;;;29.50;28.25;;;;;19.90;65.70;100971.34;4941243;28;46410;-71
2022/06/04 02:13:01;;;;;;;;;28.00;26.00;;;;;19.90;65.61;100974.06;4936812;28;45623;-71
2022/06/04 02:15:40;;;;;;;;;28.50;27.00;;;;;19.91;65.91;100992.06;4941346;28;45295;-71
2022/06/04 02:18:08;;;;;;;;;24.25;21.50;;;;;19.92;65.56;100984.78;4940760;28;45398;-71
2022/06/04 02:20:33;;;;;;;;;25.00;25.00;;;;;19.96;65.56;100979.06;4929824;28;45391;-71
2022/06/04 02:22:59;;;;;;;;;24.25;23.25;;;;;20.02;65.88;100985.03;4940833;28;45467;-71
2022/06/04 02:25:24;;;;;;;;;23.00;22.50;;;;;19.99;65.34;100988.81;4951672;28;45328;-71
2022/06/04 02:27:51;;;;;;;;;22.75;20.75;;;;;20.07;65.60;100983.72;4939107;28;45485;-71
2022/06/04 02:30:17;;;;;;;;;19.25;17.75;;;;;20.16;65.42;100990.34;4940507;28;46405;-71
2022/06/04 02:33:10;;;;;;;;;19.50;18.00;;;;;20.18;65.20;100994.72;4940538;28;45467;-71
2022/06/04 02:35:56;;;;;;;;;17.75;17.75;;;;;20.14;64.89;100989.59;4951454;28;45402;-71
2022/06/04 02:38:36;;;;;;;;;17.75;16.50;;;;;20.19;64.81;100984.72;4936194;28;45490;-71
2022/06/04 02:41:10;;;;;;;;;25.00;23.25;;;;;20.16;65.11;100974.09;4959216;28;45559;-71
2022/06/04 02:44:07;;;;;;;;;19.00;19.00;;;;;20.22;64.75;100979.09;4936878;28;45683;-71
2022/06/04 02:46:36;;;;;;;;;23.50;21.00;;;;;20.23;64.58;100974.53;4921599;28;45532;-71
2022/06/04 02:49:09;;;;;;;;;19.50;18.00;;;;;20.26;65.05;100977.03;4935510;28;45530;-71
2022/06/04 02:51:43;;;;;;;;;15.50;15.50;;;;;20.28;64.59;100983.22;4939434;28;46219;-71
2022/06/04 02:54:18;;;;;;;;;16.50;15.25;;;;;20.30;64.50;100987.56;4947940;28;45306;-71
2022/06/04 02:56:45;;;;;;;;;18.75;16.75;;;;;20.32;65.01;100976.63;4958204;28;45499;-71
2022/06/04 02:59:15;;;;;;;;;15.75;15.50;;;;;20.34;64.61;100970.09;4956091;28;45566;-72
2022/06/04 03:01:43;;;;;;;;;20.75;19.75;;;;;20.35;64.95;100969.13;4949938;28;45562;-71
2022/06/04 03:04:09;;;;;;;;;18.75;17.75;;;;;20.33;64.53;100954.81;4957642;28;45382;-71
2022/06/04 03:06:35;;;;;;;;;18.00;17.50;;;;;20.40;64.47;100970.66;4948730;28;45465;-71
2022/06/04 03:09:04;;;;;;;;;23.75;21.00;;;;;20.39;64.70;100968.94;4957151;28;45596;-71
2022/06/04 03:11:31;;;;;;;;;24.25;22.00;;;;;20.43;64.52;100975.84;4942790;28;45462;-71
2022/06/04 03:13:56;;;;;;;;;20.50;18.50;;;;;20.40;64.46;100959.81;4946402;28;45339;-71
2022/06/04 03:16:21;;;;;;;;;23.00;19.25;;;;;20.39;63.84;100960.78;4957507;28;45495;-72
2022/06/04 03:18:47;;;;;;;;;19.50;18.75;;;;;20.39;64.09;100961.66;4957709;28;45258;-71
2022/06/04 03:21:12;;;;;;;;;20.00;20.00;;;;;20.37;64.53;100960.91;4956643;28;45940;-71
2022/06/04 03:23:38;;;;;;;;;27.50;24.25;;;;;20.31;63.90;100948.66;4953661;28;45495;-72
2022/06/04 03:26:04;;;;;;;;;23.00;23.00;;;;;20.33;64.12;100952.13;4955347;28;45349;-72
2022/06/04 03:28:29;;;;;;;;;24.50;22.75;;;;;20.31;64.34;100936.91;4940310;28;45343;-71
2022/06/04 03:30:55;;;;;;;;;23.75;20.25;;;;;20.28;64.55;100939.84;4958830;28;45556;-72
2022/06/04 03:33:20;;;;;;;;;19.25;18.25;;;;;20.30;64.14;100944.19;4957938;28;45232;-71
2022/06/04 03:35:45;;;;;;;;;22.00;22.00;;;;;20.32;64.12;100941.38;4957575;28;45834;-71
2022/06/04 03:38:11;;;;;;;;;21.50;20.25;;;;;20.30;63.92;100946.91;4958252;28;45726;-72
2022/06/04 03:40:36;;;;;;;;;20.50;17.50;;;;;20.35;64.50;100957.44;4958606;28;45361;-72
2022/06/04 03:43:03;;;;;;;;;18.25;17.25;;;;;20.31;64.46;100947.75;4953793;28;45411;-72
2022/06/04 03:45:28;;;;;;;;;17.00;15.75;;;;;20.30;64.32;100937.91;4958398;28;45224;-73
2022/06/04 03:47:57;;;;;;;;;18.50;18.50;;;;;20.30;64.38;100933.34;4957639;28;45244;-72
2022/06/04 03:50:25;;;;;;;;;22.75;22.75;;;;;20.32;64.46;100923.25;4934234;28;46192;-71
2022/06/04 03:52:51;;;;;;;;;25.00;23.25;;;;;20.31;64.13;100928.78;4939087;28;45557;-72
2022/06/04 03:55:18;;;;;;;;;23.25;20.00;;;;;20.32;64.32;100952.22;4941488;28;45368;-72
2022/06/04 03:57:48;;;;;;;;;22.75;20.75;;;;;20.38;64.17;100951.81;4949394;28;46121;-73
2022/06/04 04:00:22;;;;;;;;;28.25;23.50;;;;;20.36;64.41;100964.56;4942034;28;46109;-73
2022/06/04 04:02:54;;;;;;;;;22.50;20.25;;;;;20.31;64.15;100970.34;4944545;28;45487;-72
2022/06/04 04:05:23;;;;;;;;;19.75;18.75;;;;;20.29;64.13;100974.13;4946809;28;45483;-72
2022/06/04 04:07:50;;;;;;;;;21.00;20.00;;;;;20.27;64.49;100970.66;4947883;28;45569;-72
2022/06/04 04:10:15;;;;;;;;;17.50;17.50;;;;;20.26;64.34;100972.47;4946880;28;45319;-72
2022/06/04 04:12:41;;;;;;;;;21.50;19.50;;;;;20.27;64.48;100990.50;4947047;28;45340;-73
2022/06/04 04:15:07;;;;;;;;;22.75;21.75;;;;;20.24;65.13;100989.84;4945021;28;45435;-73
2022/06/04 04:17:36;;;;;;;;;21.50;19.50;;;;;20.22;64.45;100994.50;4946554;28;45295;-73
2022/06/04 04:20:06;;;;;;;;;20.00;18.25;;;;;20.21;65.02;100999.03;4946976;28;47359;-73
2022/06/04 04:22:31;;;;;;;;;22.50;22.50;;;;;20.21;64.71;101007.16;4945333;28;45485;-73
2022/06/04 04:24:57;;;;;;;;;17.50;15.75;;;;;20.20;64.60;101021.72;4945124;28;45272;-73
2022/06/04 04:27:22;;;;;;;;;19.75;18.50;;;;;20.17;64.36;101041.75;4940017;28;45412;-73
2022/06/04 04:29:48;;;;;;;;;24.25;18.00;;;;;20.14;64.76;101057.34;4947804;28;49712;-73
2022/06/04 04:32:13;;;;;;;;;19.25;19.00;;;;;19.99;64.82;101048.41;4945639;28;45398;-73
2022/06/04 04:34:38;;;;;;;;;21.75;19.50;;;;;19.93;65.12;101056.94;4947582;28;45419;-73
2022/06/04 04:37:04;;;;;;;;;24.75;23.25;;;;;19.86;65.70;101067.31;4945058;28;46852;-73
2022/06/04 04:39:29;;;;;;;;;22.50;22.50;;;;;19.77;65.61;101068.81;4946646;28;45391;-73
2022/06/04 04:41:54;;;;;;;;;16.25;16.25;;;;;19.76;65.55;101069.78;4942067;28;45430;-73
2022/06/04 04:44:20;;;;;;;;;15.75;15.75;;;;;19.78;65.63;101075.09;4937567;28;45531;-73
2022/06/04 04:46:48;;;;;;;;;16.50;16.00;;;;;19.87;65.49;101081.75;4931059;28;45369;-73
2022/06/04 04:49:13;;;;;;;;;19.50;17.50;;;;;19.92;65.57;101085.88;4954991;28;46599;-73
2022/06/04 04:51:39;;;;;;;;;16.00;16.00;;;;;19.97;65.52;101078.31;4948704;28;45433;-73
2022/06/04 04:54:04;;;;;;;;;18.75;18.50;;;;;19.99;65.24;101073.66;4932042;28;45314;-73
2022/06/04 04:56:29;;;;;;;;;13.75;12.75;;;;;20.05;65.09;101077.81;4941588;28;45303;-70
2022/06/04 04:58:55;;;;;;;;;16.00;16.00;;;;;20.06;64.94;101074.13;4936879;28;45320;-71
2022/06/04 05:01:24;;;;;;;;;14.75;14.75;;;;;20.09;65.14;101075.75;4922973;28;45391;-70
2022/06/04 05:03:51;;;;;;;;;16.50;15.00;;;;;20.11;64.87;101061.16;4930153;28;45401;-72
2022/06/04 05:06:17;;;;;;;;;19.75;18.75;;;;;20.09;64.99;101064.94;4928453;28;45431;-71
2022/06/04 05:08:44;;;;;;;;;17.25;15.25;;;;;20.09;65.32;101065.78;4920982;28;46364;-71
2022/06/04 05:11:12;;;;;;;;;15.75;15.75;;;;;20.11;65.37;101058.44;4932632;28;45392;-71
2022/06/04 05:13:38;;;;;;;;;18.75;18.75;;;;;20.04;65.29;101030.00;4932576;28;45459;-72
2022/06/04 05:16:04;;;;;;;;;17.00;17.00;;;;;19.96;65.37;101044.09;4924871;28;45364;-71
2022/06/04 05:18:30;;;;;;;;;18.75;17.75;;;;;19.93;65.40;101047.00;4926605;28;46217;-72
2022/06/04 05:20:55;;;;;;;;;14.50;13.75;;;;;19.94;65.60;101050.56;4922875;28;45408;-71
2022/06/04 05:23:20;;;;;;;;;17.25;17.25;;;;;19.96;65.68;101051.31;4936884;28;45387;-71
2022/06/04 05:25:46;;;;;;;;;20.25;16.75;;;;;19.97;65.47;101048.50;4923872;28;45320;-71
2022/06/04 05:28:14;;;;;;;;;17.75;16.75;;;;;20.06;65.63;101041.59;4946640;28;46199;-71
2022/06/04 05:30:39;;;;;;;;;23.50;21.50;;;;;20.10;65.06;101039.56;4940900;28;45505;-71
2022/06/04 05:33:07;;;;;;;;;21.50;16.00;;;;;20.06;65.47;101024.47;4941150;28;45629;-71
2022/06/04 05:35:32;;;;;;;;;17.25;14.50;;;;;20.01;65.40;101018.50;4936883;28;45232;-71
2022/06/04 05:37:57;;;;;;;;;19.00;16.50;;;;;20.02;65.46;101004.00;4939687;28;45966;-71
2022/06/04 05:40:23;;;;;;;;;21.25;19.75;;;;;19.95;65.72;101003.53;4939936;28;45322;-72
2022/06/04 05:42:48;;;;;;;;;22.50;18.00;;;;;19.94;65.73;101007.22;4943761;28;45376;-72
2022/06/04 05:45:13;;;;;;;;;17.75;17.75;;;;;19.98;65.50;101017.75;4939504;28;45430;-72
2022/06/04 05:47:39;;;;;;;;;15.25;15.25;;;;;20.02;65.53;101012.13;4938701;28;45501;-73
2022/06/04 05:50:04;;;;;;;;;19.75;19.25;;;;;20.07;65.77;101021.66;4939248;28;45153;-72
2022/06/04 05:52:30;;;;;;;;;15.00;15.00;;;;;20.05;65.49;101015.50;4936937;28;45335;-72
2022/06/04 05:54:55;;;;;;;;;20.75;18.50;;;;;20.13;65.42;101028.50;4937378;28;49912;-72
2022/06/04 05:57:21;;;;;;;;;16.25;15.50;;;;;20.13;65.83;101028.50;4947322;28;48243;-72
2022/06/04 05:59:48;;;;;;;;;18.00;17.00;;;;;20.09;65.70;101052.22;4935623;28;45371;-72
2022/06/04 06:02:14;;;;;;;;;15.00;14.50;;;;;20.05;65.78;101064.25;4947090;28;45694;-72
2022/06/04 06:04:39;;;;;;;;;13.75;13.50;;;;;20.11;65.84;101073.81;4949240;28;45380;-72
2022/06/04 06:07:04;;;;;;;;;18.00;17.75;;;;;20.13;65.42;101072.75;4948914;28;49806;-72
2022/06/04 06:09:30;;;;;;;;;15.50;13.50;;;;;20.09;65.81;101082.03;4950754;28;45289;-72
2022/06/04 06:11:55;;;;;;;;;17.25;17.00;;;;;20.06;65.46;101100.34;4944999;28;45454;-72
2022/06/04 06:14:21;;;;;;;;;16.75;15.50;;;;;20.12;65.42;101130.63;4945454;28;45154;-72
2022/06/04 06:16:49;;;;;;;;;19.25;17.75;;;;;20.16;66.05;101083.38;4947275;28;46287;-72
2022/06/04 06:19:16;;;;;;;;;15.75;14.25;;;;;20.07;65.81;101073.16;4943323;28;45328;-72
2022/06/04 06:21:42;;;;;;;;;18.75;16.75;;;;;20.15;65.84;101135.84;4944155;28;45332;-72
2022/06/04 06:24:10;;;;;;;;;18.50;16.50;;;;;20.18;65.73;101119.38;4939824;28;45474;-72
2022/06/04 06:26:54;;;;;;;;;14.00;13.25;;;;;20.20;65.78;101159.03;4943510;28;45502;-73
2022/06/04 06:29:23;;;;;;;;;15.25;14.00;;;;;20.23;65.73;101157.03;4936171;28;45561;-73
2022/06/04 06:31:49;;;;;;;;;16.25;15.75;;;;;20.26;65.88;101166.78;4944067;28;45308;-73
2022/06/04 06:34:14;;;;;;;;;19.00;16.75;;;;;20.26;65.64;101159.50;4944103;28;45900;-73
2022/06/04 06:36:40;;;;;;;;;17.50;15.75;;;;;20.26;65.50;101148.66;4942090;28;46988;-72
2022/06/04 06:39:06;;;;;;;;;19.50;19.50;;;;;20.26;65.81;101145.09;4941024;28;45403;-72
2022/06/04 06:41:32;;;;;;;;;19.00;15.50;;;;;20.24;65.82;101142.47;4946297;28;45371;-72
2022/06/04 06:43:57;;;;;;;;;20.25;17.50;;;;;20.26;65.37;101143.25;4959600;28;45375;-72
2022/06/04 06:46:25;;;;;;;;;17.00;16.50;;;;;20.33;65.47;101151.84;4958845;28;46187;-72
2022/06/04 06:48:54;;;;;;;;;17.25;16.75;;;;;20.34;65.26;101143.59;4959687;28;45254;-72
2022/06/04 06:51:24;;;;;;;;;18.50;18.50;;;;;20.38;65.68;101147.00;4954161;28;45372;-72
2022/06/04 06:53:50;;;;;;;;;17.50;17.50;;;;;20.41;65.52;101145.91;4951233;28;45463;-72
2022/06/04 06:56:23;;;;;;;;;17.00;16.25;;;;;20.40;65.38;101141.44;4957594;28;45315;-72
2022/06/04 06:58:49;;;;;;;;;18.75;17.75;;;;;20.41;65.67;101144.06;4957155;28;46588;-72
2022/06/04 07:01:15;;;;;;;;;16.25;15.75;;;;;20.40;65.62;101122.47;4948528;28;45410;-71
2022/06/04 07:03:41;;;;;;;;;15.25;15.25;;;;;20.46;65.55;101122.06;4953057;28;45393;-71
2022/06/04 07:06:09;;;;;;;;;17.25;16.00;;;;;20.48;65.36;101111.97;4958240;28;46310;-72
2022/06/04 07:08:35;;;;;;;;;15.25;14.00;;;;;20.46;65.11;101106.66;4955937;28;45397;-72
2022/06/04 07:11:00;;;;;;;;;18.25;17.00;;;;;20.47;64.99;101110.25;4951426;28;45348;-71
2022/06/04 07:13:26;;;;;;;;;15.50;15.50;;;;;20.44;65.81;101091.47;4949460;28;45451;-71
2022/06/04 07:15:52;;;;;;;;;17.75;17.00;;;;;20.43;65.33;101079.78;4948612;28;46108;-72
2022/06/04 07:18:17;;;;;;;;;19.50;18.00;;;;;20.50;65.23;101093.78;4953070;28;45562;-72
2022/06/04 07:20:43;;;;;;;;;22.00;19.00;;;;;20.49;65.54;101100.16;4939230;28;45340;-71
2022/06/04 07:23:10;;;;;;;;;16.75;16.25;;;;;20.45;65.13;101095.94;4931758;28;45447;-72
2022/06/04 07:25:35;;;;;;;;;18.00;18.00;;;;;20.51;65.62;101115.38;4941530;28;46400;-71
2022/06/04 07:28:01;;;;;;;;;20.00;17.25;;;;;20.50;65.58;101110.91;4939049;28;45396;-71
2022/06/04 07:30:26;;;;;;;;;17.25;17.25;;;;;20.53;65.80;101124.25;4940285;28;45724;-71
2022/06/04 07:32:53;;;;;;;;;24.00;21.50;;;;;20.51;65.96;101126.22;4955607;28;45462;-71
2022/06/04 07:35:19;;;;;;;;;24.25;23.00;;;;;20.55;66.18;101133.16;4944052;28;47704;-71
2022/06/04 07:37:44;;;;;;;;;22.00;22.00;;;;;20.55;65.97;101135.00;4940187;28;45321;-71
2022/06/04 07:40:10;;;;;;;;;18.00;16.50;;;;;20.57;66.23;101127.63;4953217;28;45258;-72
2022/06/04 07:42:36;;;;;;;;;25.00;21.50;;;;;20.61;65.97;101137.28;4947819;28;45461;-71
2022/06/04 07:45:02;;;;;;;;;23.50;21.75;;;;;20.64;65.45;101147.09;4953556;28;45430;-71
2022/06/04 07:47:28;;;;;;;;;19.25;19.25;;;;;20.67;65.30;101147.75;4947635;28;45651;-71
2022/06/04 07:49:55;;;;;;;;;20.25;20.00;;;;;20.68;65.78;101141.38;4953395;28;45361;-71
2022/06/04 07:52:20;;;;;;;;;27.75;24.25;;;;;20.71;66.63;101138.44;4939487;28;45981;-71
2022/06/04 07:54:45;;;;;;;;;24.50;20.25;;;;;20.70;65.88;101131.28;4949018;28;45378;-71
2022/06/04 07:57:11;;;;;;;;;24.00;22.25;;;;;20.77;65.80;101142.56;4941353;28;45376;-72
2022/06/04 07:59:36;;;;;;;;;24.00;23.25;;;;;20.82;66.66;101128.69;4949218;28;45445;-71
2022/06/04 08:02:02;;;;;;;;;22.00;20.50;;;;;20.84;66.49;101129.44;4945964;28;45262;-71
2022/06/04 08:04:27;;;;;;;;;21.75;21.00;;;;;20.89;66.29;101124.56;4949213;28;45446;-71
2022/06/04 08:06:53;;;;;;;;;20.75;20.75;;;;;20.94;66.21;101122.41;4944374;28;45412;-71
2022/06/04 08:09:18;;;;;;;;;20.25;20.00;;;;;21.04;65.78;101117.19;4945021;28;45339;-71
2022/06/04 08:11:43;;;;;;;;;27.50;24.00;;;;;21.02;66.31;101108.31;4944953;28;45357;-71
2022/06/04 08:14:16;;;;;;;;;27.75;25.75;;;;;21.04;66.11;101107.19;4947426;28;45406;-71
2022/06/04 08:16:48;;;;;;;;;24.00;22.75;;;;;21.09;66.98;101109.59;4958782;28;45360;-71
2022/06/04 08:19:14;;;;;;;;;25.50;23.00;;;;;21.16;66.17;101110.88;4942486;28;45415;-71
2022/06/04 08:21:40;;;;;;;;;25.50;22.00;;;;;21.17;65.85;101109.91;4942195;28;45477;-71
2022/06/04 08:24:07;;;;;;;;;23.25;22.50;;;;;21.17;65.20;101111.78;4937558;28;45332;-71
2022/06/04 08:26:32;;;;;;;;;22.25;21.00;;;;;21.27;65.17;101129.16;4941882;28;45435;-71
2022/06/04 08:28:57;;;;;;;;;29.25;28.00;;;;;21.33;65.55;101130.53;4942157;28;45550;-71
2022/06/04 08:31:23;;;;;;;;;29.25;27.50;;;;;21.29;65.60;101121.75;4941433;28;45341;-71
2022/06/04 08:33:49;;;;;;;;;28.00;25.00;;;;;21.39;65.21;101124.69;4944849;28;46294;-71
2022/06/04 08:36:16;;;;;;;;;20.75;19.50;;;;;21.45;65.14;101122.38;4941738;28;45339;-70
2022/06/04 08:38:42;;;;;;;;;19.50;18.75;;;;;21.51;64.31;101123.81;4945251;28;45503;-70
2022/06/04 08:41:17;;;;;;;;;23.00;21.75;;;;;21.54;64.08;101118.16;4931697;28;45771;-70
2022/06/04 08:43:55;;;;;;;;;20.25;18.50;;;;;21.59;63.64;101129.56;4938038;28;48162;-70
2022/06/04 08:46:51;;;;;;;;;25.25;22.50;;;;;21.61;64.08;101126.72;4949315;28;45257;-70
2022/06/04 08:49:31;;;;;;;;;22.00;20.25;;;;;21.64;64.01;101132.81;4923686;28;45908;-70
2022/06/04 08:52:00;;;;;;;;;21.75;21.00;;;;;21.69;64.70;101135.19;4937733;28;45273;-70
2022/06/04 09:00:22;;;;;;;;;24.25;20.75;;;;;21.81;63.22;101147.88;4924320;28;45388;-71
2022/06/04 09:02:50;;;;;;;;;23.25;20.00;;;;;21.85;64.19;101153.94;4925480;28;45462;-71
2022/06/04 09:05:27;;;;;;;;;21.00;19.50;;;;;21.84;63.47;101142.22;4922355;28;45236;-70
2022/06/04 09:07:59;;;;;;;;;25.25;24.25;;;;;21.88;63.31;101142.00;4924717;28;45456;-71
2022/06/04 09:10:30;;;;;;;;;27.75;25.00;;;;;21.96;63.17;101150.44;4921749;28;45468;-71
2022/06/04 09:13:36;;;;;;;;;29.50;26.50;;;;;21.95;63.10;101145.97;4923334;28;45473;-71
2022/06/04 09:16:11;;;;;;;;;21.75;20.75;;;;;21.99;62.95;101153.81;4992850;28;46418;-72
2022/06/04 09:18:37;;;;;;;;;23.00;22.75;;;;;22.01;62.42;101149.13;4980680;28;45840;-71
2022/06/04 09:21:05;;;;;;;;;19.25;19.25;;;;;22.00;62.62;101146.50;4960646;28;45545;-71
2022/06/04 09:23:46;;;;;;;;;16.00;16.00;;;;;21.98;62.33;101141.19;4928933;28;45332;-71
2022/06/04 09:26:14;;;;;;;;;20.00;17.50;;;;;22.07;61.52;101152.34;4931319;28;46000;-71
2022/06/04 09:28:48;;;;;;;;;23.25;21.00;;;;;22.11;61.57;101160.19;4924770;28;45585;-71
2022/06/04 09:31:32;;;;;;;;;21.25;20.50;;;;;22.13;61.38;101158.19;4924171;28;45405;-71
2022/06/04 09:34:36;;;;;;;;;25.50;23.50;;;;;22.16;61.97;101163.41;4920563;28;45360;-71
2022/06/04 09:37:05;;;;;;;;;22.75;21.75;;;;;22.21;61.66;101157.63;4923732;28;45423;-71
2022/06/04 09:39:33;;;;;;;;;25.00;23.75;;;;;22.27;61.90;101153.59;4927874;28;45756;-71
2022/06/04 09:42:05;;;;;;;;;24.75;23.00;;;;;22.30;61.78;101148.84;4928022;28;45190;-71
2022/06/04 09:44:36;;;;;;;;;25.00;22.75;;;;;22.34;61.72;101157.63;4919847;28;45689;-69
2022/06/04 09:47:07;;;;;;;;;19.25;19.25;;;;;22.42;62.07;101148.88;4928300;28;46209;-67
2022/06/04 09:49:40;;;;;;;;;23.25;22.00;;;;;22.48;62.27;101146.56;4921372;28;45390;-71
2022/06/04 09:52:35;;;;;;;;;19.50;19.25;;;;;22.55;61.11;101146.94;4927335;28;45402;-68
2022/06/04 09:55:17;;;;;;;;;19.75;19.00;;;;;22.60;61.73;101138.44;4928734;28;45910;-71
2022/06/04 09:57:56;;;;;;;;;17.50;16.25;;;;;22.63;60.56;101149.09;4931767;28;46316;-72
2022/06/04 10:00:25;;;;;;;;;17.50;16.25;;;;;22.68;60.71;101145.03;4932087;28;45701;-72
2022/06/04 10:03:11;;;;;;;;;18.75;18.50;;;;;22.70;60.30;101137.63;4925455;28;45614;-71
2022/06/04 10:05:36;;;;;;;;;14.25;14.00;;;;;22.78;60.67;101149.75;4922076;28;45478;-71
2022/06/04 10:08:11;;;;;;;;;16.25;13.75;;;;;22.84;60.87;101155.59;4927021;28;46759;-70
2022/06/04 10:10:38;;;;;;;;;18.00;16.00;;;;;22.89;59.94;101145.22;4936117;28;45329;-69
2022/06/04 10:16:45;;;;;;;;;17.00;15.25;;;;;23.02;60.02;101150.56;4923342;28;45275;-71
2022/06/04 10:19:21;;;;;;;;;18.25;18.25;;;;;23.10;60.11;101150.88;4981919;28;45442;-70
2022/06/04 10:21:49;;;;;;;;;16.00;14.75;;;;;23.14;59.30;101148.78;4968651;28;45608;-72
2022/06/04 10:24:22;;;;;;;;;15.00;15.00;;;;;23.15;59.18;101136.88;4931125;28;45428;-72
2022/06/04 10:27:06;;;;;;;;;15.25;14.50;;;;;23.19;58.98;101142.94;4961407;28;45374;-69
2022/06/04 10:29:47;;;;;;;;;15.00;15.00;;;;;23.22;58.94;101138.13;4963168;28;47256;-71
2022/06/04 10:32:31;;;;;;;;;15.25;14.00;;;;;23.25;58.74;101132.44;4950388;28;45514;-72
2022/06/04 10:35:06;;;;;;;;;14.75;13.25;;;;;23.29;58.92;101130.34;4933854;28;45340;-69
2022/06/04 10:37:47;;;;;;;;;14.50;13.75;;;;;23.36;58.65;101136.19;4956647;28;45316;-70
2022/06/04 10:40:51;;;;;;;;;18.50;18.25;;;;;23.43;58.33;101134.69;4958602;28;45396;-70
2022/06/04 10:43:16;;;;;;;;;13.00;11.25;;;;;23.47;58.55;101144.31;4937762;28;45462;-69
2022/06/04 10:45:52;;;;;;;;;16.00;16.00;;;;;23.49;58.58;101132.31;4952105;28;45419;-69
2022/06/04 10:48:38;;;;;;;;;13.00;13.00;;;;;23.60;58.29;101139.63;4955691;28;45398;-70
2022/06/04 10:51:33;;;;;;;;;14.00;14.00;;;;;23.66;57.76;101130.94;4956692;28;46615;-71
2022/06/04 10:54:23;;;;;;;;;12.25;12.25;;;;;23.72;57.77;101128.72;4977055;28;45478;-70
2022/06/04 10:56:56;;;;;;;;;14.25;13.25;;;;;23.79;57.94;101125.38;4949557;28;45451;-69
2022/06/04 10:59:38;;;;;;;;;10.00;10.00;;;;;23.88;57.96;101121.03;4943811;28;45372;-69
2022/06/04 11:02:17;;;;;;;;;17.25;15.00;;;;;23.96;58.25;101109.50;4950616;28;47147;-69
2022/06/04 11:04:52;;;;;;;;;14.25;13.25;;;;;24.04;56.83;101115.19;4958012;28;45446;-71
2022/06/04 11:07:30;;;;;;;;;13.25;11.75;;;;;24.14;56.88;101112.53;4955428;28;45497;-69
2022/06/04 11:09:56;;;;;;;;;15.00;14.00;;;;;24.21;56.41;101111.91;4941423;28;45763;-72
2022/06/04 11:12:53;;;;;;;;;14.50;13.75;;;;;24.29;56.55;101105.81;4951859;28;47223;-70
2022/06/04 11:15:42;;;;;;;;;16.50;14.25;;;;;24.32;56.04;101099.22;4940392;28;45522;-70
2022/06/04 11:18:23;;;;;;;;;12.75;12.25;;;;;24.32;55.97;101102.78;4942219;28;45366;-70
2022/06/04 11:20:58;;;;;;;;;14.25;14.00;;;;;24.32;55.75;101101.94;4939957;28;45366;-70
2022/06/04 11:23:38;;;;;;;;;10.75;10.75;;;;;24.29;55.89;101096.75;4938387;28;45253;-68
2022/06/04 11:26:21;;;;;;;;;14.00;13.25;;;;;24.38;55.87;101091.38;4948503;28;45265;-69
2022/06/04 11:28:47;;;;;;;;;13.75;13.50;;;;;24.52;55.72;101102.97;4944740;28;45438;-70
2022/06/04 11:31:49;;;;;;;;;13.75;12.25;;;;;24.59;55.93;101091.44;4956009;28;45352;-70
2022/06/04 11:34:49;;;;;;;;;13.50;13.50;;;;;24.67;55.62;101098.94;4951121;28;45424;-71
2022/06/04 11:37:53;;;;;;;;;12.50;12.00;;;;;24.76;54.67;101089.97;4939518;28;45254;-74
2022/06/04 11:40:39;;;;;;;;;17.00;16.00;;;;;24.86;55.09;101091.88;4937958;28;45247;-76
2022/06/04 11:43:30;;;;;;;;;15.00;15.00;;;;;24.85;54.26;101084.72;4954837;28;45265;-76
2022/06/04 11:46:23;;;;;;;;;13.25;11.00;;;;;24.95;55.04;101088.34;4947317;28;45627;-71